createdAt,value
2023-03-24T01:54:53.041Z,15.10
2023-03-24T01:57:33.424Z,15.10
2023-03-24T02:00:07.008Z,15.10
2023-03-24T02:02:36.222Z,15.10
2023-03-24T02:05:08.967Z,15.10
2023-03-24T02:07:53.732Z,15.10
2023-03-24T02:10:23.530Z,15.10
2023-03-24T02:12:50.430Z,15.20
2023-03-24T02:15:19.502Z,15.20
2023-03-24T02:18:21.770Z,15.20
2023-03-24T02:21:36.153Z,15.20
2023-03-24T02:24:49.704Z,15.30
2023-03-24T02:27:51.120Z,15.50
2023-03-24T02:30:44.110Z,15.30
2023-03-24T02:33:26.202Z,15.40
2023-03-24T02:36:36.792Z,15.40
2023-03-24T02:39:54.797Z,15.50
2023-03-24T02:42:46.570Z,15.50
2023-03-24T02:45:35.250Z,15.50
2023-03-24T02:48:28.786Z,15.60
2023-03-24T02:51:11.825Z,15.60
2023-03-24T02:54:09.024Z,15.60
2023-03-24T02:56:59.214Z,15.60
2023-03-24T03:00:01.579Z,15.60
2023-03-24T03:02:37.630Z,15.50
2023-03-24T03:05:17.447Z,15.60
2023-03-24T03:07:47.665Z,15.60
2023-03-24T03:10:37.038Z,15.60
2023-03-24T03:13:22.073Z,15.60
2023-03-24T03:15:55.047Z,15.40
2023-03-24T03:18:43.690Z,15.60
2023-03-24T03:21:15.736Z,15.60
2023-03-24T03:23:54.098Z,15.60
2023-03-24T03:26:26.713Z,15.60
2023-03-24T03:29:00.019Z,15.60
2023-03-24T03:31:38.195Z,15.60
2023-03-24T03:34:38.113Z,15.60
2023-03-24T03:37:41.341Z,15.60
2023-03-24T03:40:17.149Z,15.60
2023-03-24T03:42:45.321Z,15.60
2023-03-24T03:45:14.142Z,15.70
2023-03-24T03:47:41.424Z,15.60
2023-03-24T03:50:09.863Z,15.60
2023-03-24T03:52:39.537Z,15.70
2023-03-24T03:55:08.706Z,15.70
2023-03-24T03:57:36.529Z,15.70
2023-03-24T04:00:11.956Z,15.70
2023-03-24T04:03:15.240Z,15.70
2023-03-24T04:06:17.700Z,15.70
2023-03-24T04:09:30.252Z,15.70
2023-03-24T04:12:39.209Z,15.70
2023-03-24T04:15:31.936Z,15.60
2023-03-24T04:18:16.691Z,15.60
2023-03-24T04:21:07.574Z,15.60
2023-03-24T04:24:26.281Z,15.50
2023-03-24T04:27:26.990Z,15.40
2023-03-24T04:30:03.923Z,15.30
2023-03-24T04:32:51.744Z,15.10
2023-03-24T04:35:44.638Z,15.00
2023-03-24T04:38:27.648Z,14.90
2023-03-24T04:40:57.436Z,14.90
2023-03-24T04:43:36.479Z,14.80
2023-03-24T04:46:09.502Z,14.70
2023-03-24T04:48:36.507Z,14.70
2023-03-24T04:51:04.519Z,14.60
2023-03-24T04:53:31.449Z,14.50
2023-03-24T04:56:22.378Z,14.40
2023-03-24T04:58:49.296Z,14.30
2023-03-24T05:01:17.239Z,14.20
2023-03-24T05:03:45.886Z,14.10
2023-03-24T05:06:12.837Z,14.00
2023-03-24T05:08:40.435Z,14.00
2023-03-24T05:11:07.601Z,13.90
2023-03-24T05:13:34.337Z,13.80
2023-03-24T05:16:01.257Z,13.70
2023-03-24T05:18:28.051Z,14.30
2023-03-24T05:20:54.821Z,13.60
2023-03-24T05:23:21.686Z,13.50
2023-03-24T05:25:48.518Z,13.40
2023-03-24T05:28:15.700Z,13.40
2023-03-24T05:30:42.837Z,13.30
2023-03-24T05:33:11.078Z,13.20
2023-03-24T05:35:38.531Z,13.20
2023-03-24T05:38:05.950Z,13.10
2023-03-24T05:40:41.791Z,13.00
2023-03-24T05:43:09.932Z,13.00
2023-03-24T05:45:37.885Z,12.90
2023-03-24T05:48:05.966Z,12.80
2023-03-24T05:50:34.020Z,12.80
2023-03-24T05:53:02.865Z,12.80
2023-03-24T05:55:31.172Z,12.70
2023-03-24T05:58:02.222Z,12.60
2023-03-24T06:00:31.934Z,12.60
2023-03-24T06:03:00.509Z,12.60
2023-03-24T06:05:27.991Z,12.50
2023-03-24T06:07:59.179Z,12.50
2023-03-24T06:10:28.118Z,12.50
2023-03-24T06:12:56.657Z,12.50
2023-03-24T06:15:27.951Z,12.40
2023-03-24T06:17:55.642Z,12.40
2023-03-24T06:20:26.937Z,12.50
2023-03-24T06:22:59.124Z,12.40
2023-03-24T06:25:28.798Z,12.40
2023-03-24T06:27:56.057Z,12.40
2023-03-24T06:30:22.825Z,12.40
2023-03-24T06:32:50.223Z,12.40
2023-03-24T06:35:17.679Z,12.40
2023-03-24T06:37:45.103Z,12.40
2023-03-24T06:40:15.356Z,12.50
2023-03-24T06:42:42.224Z,12.50
2023-03-24T06:45:10.232Z,12.50
2023-03-24T06:47:37.871Z,12.60
2023-03-24T06:50:07.080Z,12.60
2023-03-24T06:52:35.686Z,12.60
2023-03-24T06:55:03.306Z,12.70
2023-03-24T06:57:30.346Z,12.60
2023-03-24T06:59:57.174Z,12.70
2023-03-24T07:02:24.171Z,12.70
2023-03-24T07:04:55.264Z,12.80
2023-03-24T07:08:00.711Z,12.80
2023-03-24T07:10:11.095Z,12.90
2023-03-24T07:12:40.491Z,13.10
2023-03-24T07:15:11.394Z,13.40
2023-03-24T07:17:41.815Z,13.70
2023-03-24T07:23:03.265Z,14.50
2023-03-24T07:25:37.483Z,15.00
2023-03-24T07:28:06.238Z,15.30
2023-03-24T07:30:39.861Z,15.70
2023-03-24T07:33:15.012Z,16.00
2023-03-24T07:35:43.707Z,16.30
2023-03-24T07:38:11.271Z,16.60
2023-03-24T07:40:38.881Z,16.90
2023-03-24T07:43:06.722Z,17.00
2023-03-24T07:45:36.609Z,17.10
2023-03-24T07:48:04.155Z,17.20
2023-03-24T07:50:35.177Z,17.10
2023-03-24T07:53:02.772Z,17.10
2023-03-24T07:55:30.141Z,17.10
2023-03-24T07:57:59.346Z,17.20
2023-03-24T08:00:27.235Z,17.50
2023-03-24T08:02:55.101Z,17.90
2023-03-24T08:05:23.875Z,18.40
2023-03-24T08:07:55.938Z,18.90
2023-03-24T08:10:27.109Z,19.50
2023-03-24T08:12:54.718Z,20.10
2023-03-24T08:15:22.379Z,20.70
2023-03-24T08:17:51.420Z,21.30
2023-03-24T08:20:25.723Z,21.70
2023-03-24T08:22:54.743Z,21.90
2023-03-24T08:25:28.423Z,22.10
2023-03-24T08:27:55.897Z,22.10
2023-03-24T08:30:28.722Z,22.00
2023-03-24T08:33:04.881Z,22.00
2023-03-24T08:35:38.656Z,22.10
2023-03-24T08:38:07.359Z,22.10
2023-03-24T08:40:36.586Z,22.20
2023-03-24T08:43:10.924Z,22.10
2023-03-24T08:45:38.732Z,22.20
2023-03-24T08:48:09.482Z,22.20
2023-03-24T08:50:41.542Z,22.40
2023-03-24T08:53:13.812Z,22.50
2023-03-24T08:55:43.261Z,22.60
2023-03-24T08:58:18.743Z,22.70
2023-03-24T09:00:48.830Z,22.80
2023-03-24T09:03:22.780Z,22.90
2023-03-24T09:05:52.385Z,23.10
2023-03-24T09:14:53.079Z,24.10
2023-03-24T09:17:20.210Z,24.50
2023-03-24T09:19:47.434Z,24.80
2023-03-24T09:22:14.503Z,25.10
2023-03-24T09:24:42.011Z,25.40
2023-03-24T09:27:10.403Z,25.60
2023-03-24T09:29:37.969Z,25.80
2023-03-24T09:32:05.856Z,26.00
2023-03-24T09:34:34.360Z,26.10
2023-03-24T09:37:01.843Z,26.10
2023-03-24T09:39:30.129Z,26.20
2023-03-24T09:41:57.689Z,26.30
2023-03-24T09:44:45.416Z,26.50
2023-03-24T09:47:32.417Z,26.70
2023-03-24T09:50:09.789Z,27.10
2023-03-24T09:52:47.573Z,27.50
2023-03-24T09:55:26.087Z,27.90
2023-03-24T09:57:58.318Z,28.20
2023-03-24T10:00:30.562Z,28.30
2023-03-24T10:03:20.338Z,28.40
2023-03-24T10:06:00.272Z,28.40
2023-03-24T10:08:36.375Z,28.30
2023-03-24T10:11:17.864Z,28.00
2023-03-24T10:14:12.602Z,27.80
2023-03-24T10:16:59.383Z,27.50
2023-03-24T10:19:42.621Z,27.20
2023-03-24T10:22:53.763Z,27.00
2023-03-24T10:25:50.735Z,26.70
2023-03-24T10:28:31.972Z,26.40
2023-03-24T10:31:05.102Z,26.10
2023-03-24T10:33:37.960Z,25.90
2023-03-24T10:36:08.508Z,25.70
2023-03-24T10:38:35.942Z,25.70
2023-03-24T10:41:04.143Z,25.60
2023-03-24T10:43:32.246Z,25.60
2023-03-24T10:46:02.045Z,25.70
2023-03-24T10:48:54.549Z,25.80
2023-03-24T10:51:31.601Z,25.90
2023-03-24T10:54:23.874Z,26.00
2023-03-24T10:57:03.603Z,26.10
2023-03-24T10:59:57.503Z,26.10
2023-03-24T11:02:29.493Z,26.00
2023-03-24T11:05:12.752Z,25.90
2023-03-24T11:07:44.440Z,26.10
2023-03-24T11:10:11.104Z,25.90
2023-03-24T11:12:44.539Z,26.10
2023-03-24T11:15:30.471Z,26.20
2023-03-24T11:18:10.523Z,26.50
2023-03-24T11:20:41.525Z,26.70
2023-03-24T11:23:40.717Z,26.90
2023-03-24T11:26:16.251Z,27.10
2023-03-24T11:29:09.868Z,27.30
2023-03-24T11:31:40.318Z,27.40
2023-03-24T11:34:17.405Z,27.40
2023-03-24T11:37:12.097Z,27.30
2023-03-24T11:39:39.274Z,27.10
2023-03-24T11:42:16.962Z,26.80
2023-03-24T11:44:53.459Z,26.30
2023-03-24T11:47:33.317Z,25.90
2023-03-24T11:50:20.349Z,25.50
2023-03-24T11:53:19.906Z,25.20
2023-03-24T11:55:54.128Z,25.00
2023-03-24T11:58:37.177Z,24.80
2023-03-24T12:01:16.624Z,24.60
2023-03-24T12:04:05.004Z,24.50
2023-03-24T12:06:59.334Z,24.30
2023-03-24T12:09:57.789Z,24.20
2023-03-24T12:12:52.040Z,24.00
2023-03-24T12:15:33.772Z,23.90
2023-03-24T12:18:34.484Z,23.80
2023-03-24T12:21:41.411Z,23.70
2023-03-24T12:24:55.751Z,23.60
2023-03-24T12:28:10.550Z,23.50
2023-03-24T12:31:11.536Z,23.40
2023-03-24T12:34:25.616Z,23.40
2023-03-24T12:37:11.128Z,23.40
2023-03-24T12:40:11.510Z,23.40
2023-03-24T12:42:46.915Z,23.40
2023-03-24T12:45:44.135Z,23.50
2023-03-24T12:48:22.708Z,23.50
2023-03-24T12:51:13.716Z,23.50
2023-03-24T12:54:25.934Z,23.50
2023-03-24T12:57:03.830Z,23.40
2023-03-24T13:00:01.500Z,23.20
2023-03-24T13:03:00.775Z,23.00
2023-03-24T13:05:35.134Z,22.80
2023-03-24T13:08:18.409Z,22.60
2023-03-24T13:10:48.494Z,22.40
2023-03-24T13:13:29.853Z,22.20
2023-03-24T13:16:08.588Z,22.00
2023-03-24T13:18:44.546Z,21.80
2023-03-24T13:21:17.425Z,21.70
2023-03-24T13:24:08.644Z,21.70
2023-03-24T13:26:55.245Z,21.40
2023-03-24T13:29:49.872Z,21.30
2023-03-24T13:32:19.842Z,21.20
2023-03-24T13:34:57.906Z,21.00
2023-03-24T13:37:36.131Z,20.80
2023-03-24T13:40:15.465Z,20.60
2023-03-24T13:42:56.812Z,20.20
2023-03-24T13:45:52.381Z,19.90
2023-03-24T13:48:38.720Z,19.50
2023-03-24T13:51:21.472Z,19.20
2023-03-24T13:53:59.550Z,19.00
2023-03-24T13:56:36.995Z,18.70
2023-03-24T14:00:11.452Z,18.50
2023-03-24T14:03:17.139Z,18.30
2023-03-24T14:06:06.423Z,18.10
2023-03-24T14:08:43.893Z,18.00
2023-03-24T14:11:41.471Z,17.90
2023-03-24T14:14:22.675Z,17.70
2023-03-24T14:17:05.927Z,17.60
2023-03-24T14:19:44.336Z,17.50
2023-03-24T14:22:29.724Z,17.50
2023-03-24T14:25:16.701Z,17.50
2023-03-24T14:27:49.065Z,17.50
2023-03-24T14:30:30.706Z,17.40
2023-03-24T14:33:01.721Z,17.40
2023-03-24T14:35:41.940Z,17.40
2023-03-24T14:38:15.398Z,17.40
2023-03-24T14:40:49.465Z,17.40
2023-03-24T14:43:50.415Z,17.40
2023-03-24T14:46:19.932Z,17.40
2023-03-24T14:49:19.452Z,17.50
2023-03-24T14:51:59.900Z,17.50
2023-03-24T14:54:53.498Z,17.50
2023-03-24T14:57:34.532Z,17.50
2023-03-24T15:00:25.897Z,17.60
2023-03-24T15:03:00.901Z,17.60
2023-03-24T15:05:29.743Z,17.60
2023-03-24T15:08:23.727Z,17.60
2023-03-24T15:11:08.210Z,17.60
2023-03-24T15:13:48.074Z,17.60
2023-03-24T15:16:14.731Z,17.60
2023-03-24T15:19:25.317Z,17.60
2023-03-24T15:22:12.665Z,17.60
2023-03-24T15:24:42.105Z,17.60
2023-03-24T15:27:26.491Z,17.60
2023-03-24T15:30:00.005Z,17.60
2023-03-24T15:32:31.683Z,17.50
2023-03-24T15:35:05.613Z,17.50
2023-03-24T15:37:42.956Z,17.40
2023-03-24T15:40:36.807Z,17.30
2023-03-24T15:43:08.414Z,17.20
2023-03-24T15:45:51.059Z,17.10
2023-03-24T15:48:25.263Z,17.00
2023-03-24T15:51:02.586Z,16.80
2023-03-24T15:53:39.360Z,16.70
2023-03-24T15:56:36.312Z,16.60
2023-03-24T15:59:11.957Z,16.50
2023-03-24T16:01:42.002Z,16.40
2023-03-24T16:04:17.562Z,16.30
2023-03-24T16:06:54.342Z,16.20
2023-03-24T16:09:27.278Z,16.10
2023-03-24T16:11:54.826Z,16.00
2023-03-24T16:14:26.577Z,15.80
2023-03-24T16:17:00.278Z,15.70
2023-03-24T16:19:28.717Z,15.60
2023-03-24T16:21:56.513Z,15.50
2023-03-24T16:24:23.282Z,15.40
2023-03-24T16:26:50.285Z,15.20
2023-03-24T16:29:25.166Z,15.10
2023-03-24T16:31:56.508Z,15.00
2023-03-24T16:34:23.945Z,14.90
2023-03-24T16:36:54.221Z,14.80
2023-03-24T16:39:25.012Z,14.70
2023-03-24T16:41:52.143Z,14.70
2023-03-24T16:44:20.899Z,14.60
2023-03-24T16:46:51.140Z,14.60
2023-03-24T16:49:20.772Z,14.50
2023-03-24T16:51:48.191Z,14.50
2023-03-24T16:54:15.576Z,14.50
2023-03-24T16:56:42.648Z,14.50
2023-03-24T16:59:10.592Z,14.40
2023-03-24T17:01:40.630Z,14.40
2023-03-24T17:04:21.252Z,14.40
2023-03-24T17:06:54.818Z,14.30
2023-03-24T17:09:23.199Z,14.30
2023-03-24T17:12:04.480Z,14.20
2023-03-24T17:14:34.348Z,14.20
2023-03-24T17:17:03.001Z,14.10
2023-03-24T17:19:33.286Z,14.10
2023-03-24T17:22:04.897Z,14.00
2023-03-24T17:24:43.164Z,14.00
2023-03-24T17:27:19.061Z,13.90
2023-03-24T17:29:46.576Z,13.80
2023-03-24T17:32:14.331Z,13.80
2023-03-24T17:34:49.297Z,13.70
2023-03-24T17:37:16.670Z,13.70
2023-03-24T17:39:50.071Z,13.60
2023-03-24T17:42:17.164Z,13.60
2023-03-24T17:44:46.433Z,13.50
2023-03-24T17:50:12.250Z,13.40
2023-03-24T17:52:45.622Z,13.30
2023-03-24T17:55:17.962Z,13.30
2023-03-24T17:57:45.913Z,13.20
2023-03-24T18:00:19.660Z,13.20
2023-03-24T18:02:47.462Z,13.10
2023-03-24T18:05:15.769Z,13.10
2023-03-24T18:07:46.083Z,13.00
2023-03-24T18:10:14.245Z,13.00
2023-03-24T18:12:41.539Z,13.00
2023-03-24T18:15:09.198Z,12.80
2023-03-24T18:17:36.898Z,12.80
2023-03-24T18:20:10.841Z,12.80
2023-03-24T18:22:41.237Z,12.90
2023-03-24T18:25:13.641Z,12.90
2023-03-24T18:27:43.755Z,12.90
2023-03-24T18:30:26.872Z,12.90
2023-03-24T18:33:04.165Z,12.90
2023-03-24T18:38:58.912Z,13.00
2023-03-24T18:41:49.946Z,13.00
2023-03-24T18:44:19.529Z,13.00
2023-03-24T18:46:48.418Z,13.00
2023-03-24T18:49:39.116Z,12.90
2023-03-24T18:52:09.612Z,13.00
2023-03-24T18:54:40.033Z,13.00
2023-03-24T18:57:09.341Z,12.90
2023-03-24T18:59:38.145Z,13.00
2023-03-24T19:02:21.107Z,13.00
2023-03-24T19:04:49.620Z,13.00
2023-03-24T19:07:24.205Z,13.00
2023-03-24T19:09:52.051Z,13.00
2023-03-24T19:12:19.024Z,13.00
2023-03-24T19:14:46.263Z,13.10
2023-03-24T19:17:13.164Z,13.10
2023-03-24T19:19:41.950Z,13.10
2023-03-24T19:22:08.807Z,13.10
2023-03-24T19:24:35.640Z,13.10
2023-03-24T19:27:02.677Z,13.10
2023-03-24T19:29:29.443Z,13.10
2023-03-24T19:31:56.244Z,13.10
2023-03-24T19:34:23.794Z,13.20
2023-03-24T19:36:51.884Z,13.20
2023-03-24T19:39:18.773Z,13.20
2023-03-24T19:41:45.620Z,13.10
2023-03-24T19:44:12.425Z,13.20
2023-03-24T19:46:39.713Z,13.10
2023-03-24T19:49:06.514Z,13.40
2023-03-24T19:51:33.248Z,13.10
2023-03-24T19:54:00.174Z,13.00
2023-03-24T19:56:27.070Z,13.00
2023-03-24T19:58:53.900Z,12.90
2023-03-24T20:01:21.484Z,12.90
2023-03-24T20:03:48.529Z,13.30
2023-03-24T20:06:16.668Z,12.80
2023-03-24T20:08:45.493Z,12.70
2023-03-24T20:11:12.319Z,12.70
2023-03-24T20:13:39.085Z,12.80
2023-03-24T20:16:06.386Z,12.80
2023-03-24T20:18:34.500Z,12.70
2023-03-24T20:21:01.583Z,13.00
2023-03-24T20:23:28.722Z,12.70
2023-03-24T20:25:59.871Z,12.60
2023-03-24T20:28:27.868Z,12.60
2023-03-24T20:31:03.218Z,12.60
2023-03-24T20:33:30.711Z,12.60
2023-03-24T20:35:58.110Z,12.60
2023-03-24T20:38:25.962Z,12.60
2023-03-24T20:41:05.744Z,12.50
2023-03-24T20:43:39.654Z,12.50
2023-03-24T20:46:09.778Z,12.50
2023-03-24T20:48:36.596Z,12.50
2023-03-24T20:51:04.088Z,12.80
2023-03-24T20:53:32.807Z,12.40
2023-03-24T20:56:07.608Z,12.40
2023-03-24T20:58:41.181Z,12.40
2023-03-24T21:01:13.295Z,12.30
2023-03-24T21:03:40.790Z,12.30
2023-03-24T21:06:10.775Z,12.30
2023-03-24T21:08:37.976Z,12.20
2023-03-24T21:11:04.898Z,12.20
2023-03-24T21:13:37.415Z,12.10
2023-03-24T21:16:09.645Z,12.10
2023-03-24T21:18:37.651Z,12.10
2023-03-24T21:21:05.377Z,12.10
2023-03-24T21:23:34.474Z,12.10
2023-03-24T21:26:02.782Z,12.00
2023-03-24T21:28:30.978Z,12.00
2023-03-24T21:30:59.207Z,12.00
2023-03-24T21:33:26.552Z,12.00
2023-03-24T21:35:56.118Z,12.00
2023-03-24T21:38:23.173Z,12.10
2023-03-24T21:41:01.002Z,12.10
2023-03-24T21:43:29.054Z,12.10
2023-03-24T21:45:57.319Z,12.10
2023-03-24T21:48:26.350Z,12.10
2023-03-24T21:50:55.899Z,12.10
2023-03-24T21:53:26.015Z,12.10
2023-03-24T21:56:04.969Z,12.10
2023-03-24T21:58:33.518Z,12.00
2023-03-24T22:01:01.394Z,12.10
2023-03-24T22:03:28.792Z,12.10
2023-03-24T22:05:57.350Z,12.20
2023-03-24T22:08:26.840Z,12.20
2023-03-24T22:10:58.342Z,12.20
2023-03-24T22:13:27.203Z,12.20
2023-03-24T22:15:56.141Z,12.20
2023-03-24T22:18:25.349Z,12.20
2023-03-24T22:21:01.002Z,12.20
2023-03-24T22:23:32.732Z,12.20
2023-03-24T22:26:01.829Z,12.20
2023-03-24T22:28:29.866Z,12.30
2023-03-24T22:31:16.722Z,12.30
2023-03-24T22:33:44.838Z,12.30
2023-03-24T22:36:12.416Z,12.30
2023-03-24T22:38:39.217Z,12.30
2023-03-24T22:41:10.118Z,12.20
2023-03-24T22:43:39.355Z,12.20
2023-03-24T22:46:06.817Z,12.20
2023-03-24T22:48:33.660Z,12.10
2023-03-24T22:51:00.498Z,12.10
2023-03-24T22:53:27.270Z,12.10
2023-03-24T22:55:54.217Z,12.00
2023-03-24T22:58:21.235Z,12.00
2023-03-24T23:00:53.755Z,11.90
2023-03-24T23:03:20.669Z,11.90
2023-03-24T23:05:48.102Z,11.90
2023-03-24T23:08:16.197Z,11.80
2023-03-24T23:10:44.769Z,11.80
2023-03-24T23:13:12.191Z,11.70
2023-03-24T23:15:39.960Z,11.70
2023-03-24T23:18:07.033Z,11.60
2023-03-24T23:20:34.427Z,11.60
2023-03-24T23:23:02.809Z,11.60
2023-03-24T23:25:30.539Z,11.50
2023-03-24T23:27:57.605Z,11.50
2023-03-24T23:30:24.392Z,11.50
2023-03-24T23:32:51.327Z,11.50
2023-03-24T23:35:18.654Z,11.50
2023-03-24T23:37:45.517Z,11.40
2023-03-24T23:40:15.625Z,11.40
2023-03-24T23:42:46.524Z,11.40
2023-03-24T23:45:17.989Z,11.40
2023-03-24T23:47:49.822Z,11.40
2023-03-24T23:50:19.251Z,11.40
2023-03-24T23:52:46.195Z,11.40
2023-03-24T23:55:16.025Z,11.50
2023-03-24T23:57:43.220Z,11.50
